Time;durP1;ratioP1;P1;durP2;ratioP2;P2;SDS_P1;SDS_P2;PMS_P1;PMS_P2;Temp;Humidity;BMP_temperature;BMP_pressure;BME280_temperature;BME280_humidity;BME280_pressure;Samples;Min_cycle;Max_cycle;Signal;HPM_P1;HPM_P2
2022/12/06 00:01:46;;;;;;;23.53;17.77;;;3.50;1.00;;;;;;6210102;28;20235;-53
2022/12/06 00:04:50;;;;;;;23.57;18.17;;;3.50;1.00;;;;;;6211412;28;20342;-53
2022/12/06 00:07:53;;;;;;;21.47;16.83;;;3.40;1.00;;;;;;6212629;28;20238;-52
2022/12/06 00:11:04;;;;;;;22.27;16.97;;;3.70;1.00;;;;;;6212279;28;20241;-47
2022/12/06 00:14:07;;;;;;;21.87;17.83;;;3.50;1.00;;;;;;6209629;28;20250;-53
2022/12/06 00:17:10;;;;;;;21.17;17.07;;;3.60;1.00;;;;;;6216527;28;20251;-52
2022/12/06 00:20:15;;;;;;;21.97;17.20;;;3.60;1.00;;;;;;6210887;28;20300;-52
2022/12/06 00:23:18;;;;;;;23.03;17.83;;;3.50;1.00;;;;;;6211632;28;20236;-52
2022/12/06 00:26:21;;;;;;;21.53;17.53;;;3.40;1.00;;;;;;6211618;28;20235;-55
2022/12/06 00:29:24;;;;;;;19.30;16.23;;;3.40;1.00;;;;;;6214977;28;20243;-53
2022/12/06 00:32:27;;;;;;;18.60;15.83;;;3.60;1.00;;;;;;6192118;28;20722;-53
2022/12/06 00:35:32;;;;;;;18.97;16.57;;;3.60;1.00;;;;;;6187543;28;20718;-53
2022/12/06 00:38:35;;;;;;;21.30;16.60;;;3.60;1.00;;;;;;6206007;28;20729;-54
2022/12/06 00:41:38;;;;;;;17.60;15.70;;;3.70;1.00;;;;;;6221542;28;20246;-52
2022/12/06 00:44:41;;;;;;;18.77;16.60;;;3.50;1.00;;;;;;6209810;28;20232;-52
2022/12/06 00:47:44;;;;;;;20.60;15.93;;;3.50;1.00;;;;;;6210533;28;20243;-57
2022/12/06 00:50:48;;;;;;;18.53;15.93;;;3.40;1.00;;;;;;6197438;28;20247;-52
2022/12/06 00:53:52;;;;;;;17.80;15.20;;;3.50;1.00;;;;;;6186254;28;20543;-53
2022/12/06 00:56:55;;;;;;;18.90;16.57;;;3.60;1.00;;;;;;6187233;28;20734;-52
2022/12/06 00:59:58;;;;;;;19.57;16.47;;;3.60;1.00;;;;;;6187177;28;20240;-59
2022/12/06 01:03:02;;;;;;;18.27;15.90;;;3.60;1.00;;;;;;6216688;28;20250;-53
2022/12/06 01:06:08;;;;;;;21.50;16.30;;;3.30;1.00;;;;;;6208705;28;20242;-53
2022/12/06 01:09:12;;;;;;;19.23;16.33;;;3.40;1.00;;;;;;6230390;28;20230;-52
2022/12/06 01:12:15;;;;;;;17.90;15.97;;;3.50;1.00;;;;;;6239998;28;20234;-53
2022/12/06 01:15:18;;;;;;;18.83;15.53;;;3.50;1.00;;;;;;6235253;28;20235;-52
2022/12/06 01:18:22;;;;;;;18.47;16.47;;;3.60;1.00;;;;;;6232396;28;20566;-52
2022/12/06 01:21:27;;;;;;;19.47;16.80;;;3.50;1.00;;;;;;6235500;28;20233;-53
2022/12/06 01:24:30;;;;;;;17.60;15.70;;;3.40;1.00;;;;;;6235234;28;20234;-52
2022/12/06 01:27:33;;;;;;;19.73;16.60;;;3.60;1.00;;;;;;6219446;28;20254;-55
2022/12/06 01:30:39;;;;;;;19.70;16.53;;;3.60;1.00;;;;;;6211190;28;20234;-52
2022/12/06 01:33:43;;;;;;;19.67;16.60;;;3.20;1.00;;;;;;6210807;28;20228;-53
2022/12/06 01:36:49;;;;;;;18.70;16.70;;;3.40;1.00;;;;;;6212696;28;20759;-55
2022/12/06 01:39:52;;;;;;;18.53;16.63;;;3.50;1.00;;;;;;6236614;28;20250;-53
2022/12/06 01:42:55;;;;;;;16.70;15.00;;;3.40;1.00;;;;;;6246210;28;20732;-53
2022/12/06 01:46:02;;;;;;;18.70;16.57;;;3.50;1.00;;;;;;6234418;28;20325;-53
2022/12/06 01:49:17;;;;;;;19.27;16.43;;;3.50;1.00;;;;;;6239884;28;20242;-53
2022/12/06 01:52:26;;;;;;;18.40;16.27;;;3.10;1.00;;;;;;6216775;28;20232;-52
2022/12/06 01:55:33;;;;;;;21.20;17.53;;;3.40;1.00;;;;;;6212896;28;20725;-53
2022/12/06 01:58:40;;;;;;;20.13;17.07;;;3.30;1.00;;;;;;6214643;28;20239;-53
2022/12/06 02:01:43;;;;;;;17.70;15.93;;;3.00;1.00;;;;;;6224762;28;20235;-53
2022/12/06 02:04:47;;;;;;;20.50;17.10;;;3.40;1.00;;;;;;6214881;28;20231;-52
2022/12/06 02:07:52;;;;;;;17.70;15.80;;;3.10;1.00;;;;;;6214319;28;20234;-50
2022/12/06 02:10:55;;;;;;;17.83;15.93;;;3.20;1.00;;;;;;6244552;28;20297;-56
2022/12/06 02:13:59;;;;;;;16.30;14.60;;;3.30;1.00;;;;;;6247628;28;20663;-53
2022/12/06 02:17:18;;;;;;;16.60;14.13;;;3.30;1.00;;;;;;6234990;28;20242;-53
2022/12/06 02:20:28;;;;;;;17.23;15.30;;;3.30;1.00;;;;;;6220793;28;20369;-53
2022/12/06 02:23:58;;;;;;;16.67;14.93;;;3.30;1.00;;;;;;6240586;28;20231;-56
2022/12/06 02:27:21;;;;;;;17.10;15.33;;;3.30;1.00;;;;;;6219766;28;20243;-52
2022/12/06 02:30:46;;;;;;;20.97;16.13;;;3.20;1.00;;;;;;6212079;28;20239;-52
2022/12/06 02:33:52;;;;;;;16.83;15.03;;;3.00;1.00;;;;;;6228233;28;20234;-52
2022/12/06 02:37:00;;;;;;;18.63;16.67;;;3.40;1.00;;;;;;6218121;28;20729;-57
2022/12/06 02:40:08;;;;;;;17.53;15.73;;;3.00;1.00;;;;;;6238837;28;20239;-53
2022/12/06 02:43:16;;;;;;;17.97;16.07;;;3.20;1.00;;;;;;6219084;28;20239;-53
2022/12/06 02:46:22;;;;;;;19.67;15.60;;;3.20;1.00;;;;;;6237561;28;20231;-51
2022/12/06 02:49:28;;;;;;;17.77;15.47;;;3.40;1.00;;;;;;6237448;28;20731;-53
2022/12/06 02:52:32;;;;;;;20.37;15.90;;;2.90;1.00;;;;;;6237764;28;20382;-53
2022/12/06 02:55:36;;;;;;;19.37;16.03;;;3.20;1.00;;;;;;6238535;28;20234;-57
2022/12/06 02:58:39;;;;;;;20.90;16.43;;;3.30;1.00;;;;;;6238433;28;20245;-52
2022/12/06 03:01:46;;;;;;;19.70;15.87;;;3.00;1.00;;;;;;6216969;28;20474;-52
2022/12/06 03:05:02;;;;;;;18.47;16.57;;;2.90;1.00;;;;;;6212068;28;20241;-53
2022/12/06 03:08:13;;;;;;;21.93;16.70;;;3.20;1.00;;;;;;6221602;28;20617;-51
2022/12/06 03:11:17;;;;;;;22.50;17.20;;;2.80;1.00;;;;;;6245050;28;20252;-53
2022/12/06 03:14:23;;;;;;;19.30;16.17;;;2.90;1.00;;;;;;6236807;28;20238;-52
2022/12/06 03:17:35;;;;;;;19.07;16.17;;;2.80;1.00;;;;;;6225503;28;20299;-53
2022/12/06 03:20:44;;;;;;;17.67;15.40;;;3.00;1.00;;;;;;6247402;28;20231;-53
2022/12/06 03:23:50;;;;;;;18.17;15.67;;;2.90;1.00;;;;;;6235645;28;20780;-53
2022/12/06 03:26:55;;;;;;;17.80;15.77;;;2.80;1.00;;;;;;6235570;28;20242;-52
2022/12/06 03:30:02;;;;;;;21.17;16.87;;;2.80;1.00;;;;;;6227632;28;20244;-51
2022/12/06 03:33:07;;;;;;;22.27;16.53;;;3.20;1.00;;;;;;6211332;28;20235;-53
2022/12/06 03:36:12;;;;;;;20.23;16.87;;;2.90;1.00;;;;;;6211548;28;20357;-54
2022/12/06 03:39:24;;;;;;;23.77;18.07;;;3.00;1.00;;;;;;6239376;28;20239;-54
2022/12/06 03:42:27;;;;;;;23.27;18.33;;;2.80;1.00;;;;;;6250063;28;20226;-52
2022/12/06 03:45:36;;;;;;;24.20;17.47;;;2.80;1.00;;;;;;6232772;28;20245;-51
2022/12/06 03:48:44;;;;;;;24.67;17.93;;;2.80;1.00;;;;;;6214510;28;20596;-53
2022/12/06 03:51:48;;;;;;;22.50;17.83;;;3.00;1.00;;;;;;6211692;28;20235;-52
2022/12/06 03:54:51;;;;;;;23.27;17.90;;;2.70;1.00;;;;;;6212092;28;20228;-52
2022/12/06 03:57:54;;;;;;;21.93;18.67;;;2.80;1.00;;;;;;6211488;28;20742;-54
2022/12/06 04:01:03;;;;;;;22.77;17.47;;;2.60;1.00;;;;;;6211317;28;20243;-52
2022/12/06 04:04:09;;;;;;;25.57;18.60;;;2.70;1.00;;;;;;6211289;28;20239;-53
2022/12/06 04:07:12;;;;;;;24.20;18.10;;;2.70;1.00;;;;;;6216698;28;20752;-53
2022/12/06 04:10:15;;;;;;;19.03;16.10;;;2.90;1.00;;;;;;6232569;28;20235;-53
2022/12/06 04:13:18;;;;;;;18.57;15.90;;;2.60;1.00;;;;;;6241210;28;20227;-53
2022/12/06 04:19:43;;;;;;;19.40;16.73;;;2.60;1.00;;;;;;6234980;28;20414;-53
2022/12/06 04:23:05;;;;;;;19.00;16.67;;;2.70;1.00;;;;;;6233844;28;20316;-53
2022/12/06 04:26:10;;;;;;;17.33;14.80;;;3.00;1.00;;;;;;6235344;28;20234;-52
2022/12/06 04:39:19;;;;;;;15.17;12.90;;;2.90;1.00;;;;;;6238769;28;20248;-57
2022/12/06 04:45:43;;;;;;;13.00;11.73;;;2.90;1.00;;;;;;6230816;28;20709;-53
2022/12/06 04:48:46;;;;;;;13.97;12.20;;;2.90;1.00;;;;;;6235718;28;20238;-52
2022/12/06 04:51:51;;;;;;;13.70;12.13;;;2.80;1.00;;;;;;6226013;28;20713;-52
2022/12/06 04:54:54;;;;;;;14.53;12.60;;;2.90;1.00;;;;;;6235577;28;20740;-52
2022/12/06 04:57:57;;;;;;;13.57;12.13;;;2.80;1.00;;;;;;6238259;28;20238;-53
2022/12/06 05:00:59;;;;;;;14.63;13.13;;;2.70;1.00;;;;;;6235136;28;20235;-54
2022/12/06 05:04:03;;;;;;;13.43;11.57;;;3.00;1.00;;;;;;6234988;28;20325;-53
2022/12/06 05:07:08;;;;;;;13.27;12.07;;;2.80;1.00;;;;;;6228782;28;20254;-53
2022/12/06 05:10:12;;;;;;;13.37;12.17;;;2.70;1.00;;;;;;6227489;28;20242;-52
2022/12/06 05:13:15;;;;;;;12.87;11.67;;;2.80;1.00;;;;;;6235851;28;20733;-54
2022/12/06 05:16:18;;;;;;;12.97;11.67;;;3.10;1.00;;;;;;6237992;28;20238;-53
2022/12/06 05:19:21;;;;;;;12.47;11.27;;;2.90;1.00;;;;;;6237758;28;20242;-53
2022/12/06 05:22:25;;;;;;;12.00;10.90;;;2.70;1.00;;;;;;6236798;28;20234;-52
2022/12/06 05:25:28;;;;;;;11.43;10.43;;;2.90;1.00;;;;;;6239581;28;20250;-53
2022/12/06 05:28:32;;;;;;;11.40;10.40;;;3.20;1.00;;;;;;6224490;28;20752;-53
2022/12/06 05:31:35;;;;;;;10.77;9.87;;;2.80;1.00;;;;;;6241222;28;20237;-54
2022/12/06 05:34:38;;;;;;;9.87;9.10;;;2.90;1.00;;;;;;6238373;28;20728;-53
2022/12/06 05:37:42;;;;;;;10.97;10.07;;;3.20;1.00;;;;;;6236895;28;20253;-53
2022/12/06 05:40:46;;;;;;;10.23;9.43;;;2.90;1.00;;;;;;6241082;28;20234;-53
2022/12/06 05:43:49;;;;;;;9.57;8.87;;;3.10;1.00;;;;;;6238077;28;20234;-53
2022/12/06 05:46:52;;;;;;;10.47;9.53;;;3.00;1.00;;;;;;6232235;28;20967;-54
2022/12/06 05:49:55;;;;;;;11.10;10.20;;;2.80;1.00;;;;;;6238081;28;20238;-53
2022/12/06 05:53:00;;;;;;;10.37;9.57;;;2.70;1.00;;;;;;6239224;28;20239;-53
2022/12/06 05:56:05;;;;;;;10.80;9.90;;;3.10;1.00;;;;;;6237018;28;20285;-51
2022/12/06 05:59:08;;;;;;;10.80;9.80;;;2.60;1.00;;;;;;6239148;28;20718;-52
2022/12/06 06:02:11;;;;;;;10.80;9.80;;;2.80;1.00;;;;;;6231535;28;20314;-53
2022/12/06 06:05:14;;;;;;;11.40;10.27;;;2.60;1.00;;;;;;6238335;28;20235;-52
2022/12/06 06:08:18;;;;;;;9.87;9.07;;;2.90;1.00;;;;;;6236901;28;20245;-52
2022/12/06 06:11:22;;;;;;;11.40;10.30;;;2.60;1.00;;;;;;6237189;28;20242;-52
2022/12/06 06:14:25;;;;;;;11.63;10.63;;;2.60;1.00;;;;;;6237664;28;20230;-53
2022/12/06 06:17:28;;;;;;;12.00;10.73;;;2.80;1.00;;;;;;6238349;28;20246;-53
2022/12/06 06:20:31;;;;;;;11.77;10.67;;;2.90;1.00;;;;;;6234621;28;20234;-53
2022/12/06 06:23:35;;;;;;;11.67;10.57;;;2.60;1.00;;;;;;6231701;28;20238;-53
2022/12/06 06:26:38;;;;;;;11.47;10.50;;;2.90;1.00;;;;;;6229202;28;20258;-57
2022/12/06 06:29:41;;;;;;;12.40;11.30;;;2.70;1.00;;;;;;6227263;28;20265;-54
2022/12/06 06:32:47;;;;;;;12.97;11.87;;;2.80;1.00;;;;;;6241395;28;20243;-53
2022/12/06 06:35:50;;;;;;;12.10;11.10;;;2.80;1.00;;;;;;6241428;28;20241;-52
2022/12/06 06:38:54;;;;;;;12.33;11.30;;;2.90;1.00;;;;;;6232223;28;20246;-53
2022/12/06 06:41:57;;;;;;;13.23;12.00;;;2.60;1.00;;;;;;6237092;28;20239;-53
2022/12/06 06:45:00;;;;;;;11.80;10.77;;;2.60;1.00;;;;;;6233506;28;20604;-53
2022/12/06 06:48:06;;;;;;;12.93;11.73;;;2.50;1.00;;;;;;6233805;28;20410;-52
2022/12/06 06:51:11;;;;;;;12.47;11.27;;;2.60;1.00;;;;;;6228870;28;20606;-51
2022/12/06 06:54:15;;;;;;;13.23;11.97;;;2.70;1.00;;;;;;6235977;28;20728;-53
2022/12/06 06:57:18;;;;;;;12.30;11.20;;;2.70;1.00;;;;;;6236305;28;20262;-52
2022/12/06 07:00:21;;;;;;;12.00;10.83;;;2.70;1.00;;;;;;6237312;28;20254;-52
2022/12/06 07:03:25;;;;;;;11.97;10.97;;;2.70;1.00;;;;;;6233055;28;20234;-53
2022/12/06 07:06:28;;;;;;;13.07;11.87;;;2.90;1.00;;;;;;6236630;28;20230;-52
2022/12/06 07:09:33;;;;;;;12.30;11.23;;;2.80;1.00;;;;;;6235711;28;20417;-52
2022/12/06 07:12:36;;;;;;;12.43;11.43;;;2.60;1.00;;;;;;6235071;28;20239;-53
2022/12/06 07:15:39;;;;;;;13.07;11.97;;;2.60;1.00;;;;;;6236880;28;20825;-52
2022/12/06 07:18:42;;;;;;;14.20;13.00;;;2.80;1.00;;;;;;6235077;28;20238;-53
2022/12/06 07:21:45;;;;;;;13.97;12.77;;;2.50;1.00;;;;;;6231305;28;20477;-53
2022/12/06 07:24:49;;;;;;;13.07;12.00;;;2.60;1.00;;;;;;6235619;28;20242;-53
2022/12/06 07:27:54;;;;;;;13.00;11.90;;;2.80;1.00;;;;;;6234587;28;20243;-52
2022/12/06 07:30:57;;;;;;;13.50;12.20;;;3.00;1.00;;;;;;6234311;28;20358;-52
2022/12/06 07:34:02;;;;;;;12.67;11.57;;;2.70;1.00;;;;;;6235306;28;20234;-52
2022/12/06 07:37:06;;;;;;;12.90;11.83;;;2.90;1.00;;;;;;6232420;28;20235;-52
2022/12/06 07:40:12;;;;;;;12.47;11.27;;;2.60;1.00;;;;;;6235255;28;20250;-53
2022/12/06 07:46:35;;;;;;;11.23;10.23;;;2.60;1.00;;;;;;6234414;28;20720;-53
2022/12/06 07:49:38;;;;;;;12.37;11.27;;;3.10;1.00;;;;;;6243609;28;20871;-57
2022/12/06 07:52:42;;;;;;;11.53;10.53;;;2.70;1.00;;;;;;6239973;28;20341;-53
2022/12/06 07:55:47;;;;;;;10.70;9.90;;;2.80;1.00;;;;;;6235330;28;20291;-54
2022/12/06 07:58:50;;;;;;;10.50;9.53;;;2.60;1.00;;;;;;6240518;28;20276;-53
2022/12/06 08:01:53;;;;;;;10.23;9.43;;;2.70;1.00;;;;;;6245040;28;20697;-52
2022/12/06 08:04:57;;;;;;;10.23;9.47;;;3.00;1.00;;;;;;6235057;28;20246;-54
2022/12/06 08:08:00;;;;;;;10.87;10.00;;;2.90;1.00;;;;;;6233611;28;20242;-52
2022/12/06 08:11:06;;;;;;;11.30;10.30;;;2.90;1.00;;;;;;6234882;28;20477;-53
2022/12/06 08:14:10;;;;;;;10.83;9.93;;;3.20;1.00;;;;;;6225441;28;20261;-53
2022/12/06 08:17:14;;;;;;;10.93;10.10;;;2.80;1.00;;;;;;6233773;28;20247;-54
2022/12/06 08:20:17;;;;;;;11.53;10.57;;;3.00;1.00;;;;;;6233959;28;20637;-53
2022/12/06 08:23:20;;;;;;;11.73;10.60;;;2.90;1.00;;;;;;6233353;28;20261;-54
2022/12/06 08:26:24;;;;;;;12.23;11.13;;;3.00;1.00;;;;;;6230718;28;20606;-51
2022/12/06 08:29:27;;;;;;;12.00;11.07;;;2.90;1.00;;;;;;6242595;28;20599;-53
2022/12/06 08:32:30;;;;;;;11.40;10.43;;;2.90;1.00;;;;;;6232985;28;20636;-53
2022/12/06 08:35:37;;;;;;;12.07;11.07;;;3.00;1.00;;;;;;6231426;28;20743;-53
2022/12/06 08:38:40;;;;;;;11.67;10.43;;;3.10;1.00;;;;;;6229027;28;20238;-52
2022/12/06 08:41:58;;;;;;;11.70;10.53;;;3.10;1.00;;;;;;6234660;28;20728;-53
2022/12/06 08:45:00;;;;;;;11.70;10.60;;;3.20;1.00;;;;;;6227616;28;20242;-53
2022/12/06 08:48:04;;;;;;;10.60;9.70;;;3.20;1.00;;;;;;6234414;28;20257;-51
2022/12/06 08:51:07;;;;;;;9.20;8.50;;;3.10;1.00;;;;;;6233754;28;20236;-52
2022/12/06 08:54:13;;;;;;;8.97;8.20;;;3.20;1.00;;;;;;6235144;28;20239;-53
2022/12/06 08:57:17;;;;;;;8.73;8.10;;;3.10;1.00;;;;;;6227916;28;20626;-53
2022/12/06 09:00:20;;;;;;;9.23;8.63;;;3.20;1.00;;;;;;6233691;28;20234;-53
2022/12/06 09:03:23;;;;;;;8.30;7.70;;;3.30;1.00;;;;;;6230386;28;20253;-59
2022/12/06 09:06:27;;;;;;;8.77;8.17;;;3.20;1.00;;;;;;6235367;28;20237;-53
2022/12/06 09:09:30;;;;;;;8.93;8.13;;;3.20;1.00;;;;;;6229093;28;20231;-53
2022/12/06 09:12:35;;;;;;;8.90;8.30;;;3.30;1.00;;;;;;6231071;28;20235;-54
2022/12/06 09:15:38;;;;;;;8.63;8.13;;;3.10;1.00;;;;;;6234697;28;20238;-52
2022/12/06 09:18:41;;;;;;;8.43;7.87;;;3.30;1.00;;;;;;6233150;28;20724;-54
2022/12/06 09:21:45;;;;;;;7.60;7.20;;;3.40;1.00;;;;;;6226794;28;20231;-55
2022/12/06 09:24:48;;;;;;;7.87;7.40;;;3.50;1.00;;;;;;6231151;28;20253;-53
2022/12/06 09:27:53;;;;;;;7.87;7.40;;;3.40;1.00;;;;;;6232302;28;20242;-53
2022/12/06 09:30:57;;;;;;;7.97;7.53;;;3.50;1.00;;;;;;6234067;28;20639;-54
2022/12/06 09:34:00;;;;;;;8.20;7.70;;;3.20;1.00;;;;;;6218655;28;20312;-52
2022/12/06 09:37:08;;;;;;;8.07;7.53;;;3.30;1.00;;;;;;6209340;28;20239;-49
2022/12/06 09:40:19;;;;;;;9.63;8.80;;;3.30;1.00;;;;;;6208574;28;20240;-53
2022/12/06 09:43:37;;;;;;;9.40;8.80;;;3.30;1.00;;;;;;6204841;28;20236;-53
2022/12/06 09:46:55;;;;;;;8.93;8.40;;;3.10;1.00;;;;;;6208093;28;20259;-53
2022/12/06 09:50:09;;;;;;;9.47;8.87;;;3.20;1.00;;;;;;6202891;28;20486;-53
2022/12/06 09:53:21;;;;;;;8.60;8.10;;;3.30;1.00;;;;;;6208573;28;20247;-53
2022/12/06 09:56:30;;;;;;;9.20;8.50;;;3.40;1.00;;;;;;6206743;28;20231;-53
2022/12/06 09:59:46;;;;;;;8.93;8.13;;;3.20;1.00;;;;;;6209033;28;20239;-53
2022/12/06 10:03:25;;;;;;;9.60;8.83;;;3.40;1.00;;;;;;6217266;28;20630;-53
2022/12/06 10:06:36;;;;;;;9.37;8.40;;;3.40;1.00;;;;;;6187626;28;20331;-52
2022/12/06 10:09:50;;;;;;;9.80;8.93;;;3.30;1.00;;;;;;6218854;28;20238;-53
2022/12/06 10:13:03;;;;;;;9.97;9.07;;;3.30;1.00;;;;;;6221634;28;20247;-53
2022/12/06 10:16:16;;;;;;;9.50;8.60;;;3.20;1.00;;;;;;6208599;28;20235;-54
2022/12/06 10:19:30;;;;;;;9.17;8.47;;;3.10;1.00;;;;;;6211224;28;20241;-52
2022/12/06 10:22:45;;;;;;;8.60;8.07;;;3.30;1.00;;;;;;6208687;28;20446;-54
2022/12/06 10:26:02;;;;;;;8.87;8.37;;;3.20;1.00;;;;;;6234178;28;20630;-54
2022/12/06 10:29:16;;;;;;;8.97;8.20;;;3.60;1.00;;;;;;6237165;28;20718;-52
2022/12/06 10:32:33;;;;;;;7.90;7.40;;;3.50;1.00;;;;;;6225312;28;20242;-53
2022/12/06 10:35:42;;;;;;;7.47;7.07;;;3.40;1.00;;;;;;6233017;28;20241;-53
2022/12/06 10:38:49;;;;;;;8.67;8.17;;;3.40;1.00;;;;;;6235873;28;20235;-53
2022/12/06 10:42:01;;;;;;;8.07;7.57;;;3.30;1.00;;;;;;6215776;28;20243;-53
2022/12/06 10:48:40;;;;;;;7.67;7.17;;;3.60;1.00;;;;;;6202919;28;20682;-53
2022/12/06 10:51:47;;;;;;;7.13;6.73;;;3.30;1.00;;;;;;6209192;28;20258;-53
2022/12/06 10:54:58;;;;;;;7.73;7.23;;;3.60;1.00;;;;;;6212288;28;20249;-54
2022/12/06 10:58:11;;;;;;;7.33;6.97;;;3.60;1.00;;;;;;6233956;28;20721;-52
2022/12/06 11:01:19;;;;;;;7.67;7.10;;;3.50;1.00;;;;;;6238720;28;20253;-53
2022/12/06 11:04:29;;;;;;;7.53;7.13;;;3.60;1.00;;;;;;6236789;28;20242;-53
2022/12/06 11:07:37;;;;;;;8.33;7.73;;;3.60;1.00;;;;;;6233300;28;20247;-53
2022/12/06 11:10:43;;;;;;;7.63;7.13;;;3.70;1.00;;;;;;6236450;28;20223;-57
2022/12/06 11:13:49;;;;;;;8.13;7.63;;;3.70;1.00;;;;;;6234077;28;20226;-52
2022/12/06 11:16:55;;;;;;;9.20;8.43;;;3.50;1.00;;;;;;6236798;28;20238;-53
2022/12/06 11:20:10;;;;;;;9.10;8.30;;;3.50;1.00;;;;;;6237891;28;20249;-52
2022/12/06 11:23:20;;;;;;;10.23;9.27;;;3.50;1.00;;;;;;6223881;28;20234;-53
2022/12/06 11:26:32;;;;;;;9.77;9.07;;;3.50;1.00;;;;;;6231783;28;20231;-52
2022/12/06 11:29:36;;;;;;;10.73;9.67;;;3.60;1.00;;;;;;6231819;28;20226;-53
2022/12/06 11:32:39;;;;;;;11.43;9.13;;;3.60;1.00;;;;;;6232325;28;20697;-56
2022/12/06 11:35:46;;;;;;;10.50;9.60;;;3.70;1.00;;;;;;6238594;28;20234;-53
2022/12/06 11:38:49;;;;;;;10.63;9.53;;;3.50;1.00;;;;;;6234093;28;20616;-54
2022/12/06 11:41:55;;;;;;;9.07;8.37;;;3.60;1.00;;;;;;6236386;28;20789;-53
2022/12/06 11:45:04;;;;;;;8.90;8.20;;;3.60;1.00;;;;;;6235393;28;20250;-53
2022/12/06 11:48:15;;;;;;;9.67;8.97;;;3.60;1.00;;;;;;6203861;28;20240;-53
2022/12/06 11:51:21;;;;;;;9.73;8.93;;;3.70;1.00;;;;;;6209932;28;20626;-52
2022/12/06 11:54:29;;;;;;;10.27;9.37;;;3.70;1.00;;;;;;6210550;28;20239;-53
2022/12/06 11:57:38;;;;;;;10.40;9.60;;;3.60;1.00;;;;;;6207936;28;20610;-53
2022/12/06 12:00:57;;;;;;;11.67;9.30;;;3.80;1.00;;;;;;6211182;28;20231;-53
2022/12/06 12:04:20;;;;;;;10.70;9.70;;;3.80;1.00;;;;;;6215810;28;20232;-53
2022/12/06 12:07:25;;;;;;;10.17;9.13;;;3.80;1.00;;;;;;6208405;28;20235;-52
2022/12/06 12:10:34;;;;;;;10.67;9.77;;;3.80;1.00;;;;;;6208904;28;20253;-52
2022/12/06 12:13:46;;;;;;;10.33;9.43;;;3.90;1.00;;;;;;6211360;28;20239;-52
2022/12/06 12:16:52;;;;;;;9.90;8.93;;;3.70;1.00;;;;;;6210261;28;20247;-54
2022/12/06 12:20:00;;;;;;;9.50;8.80;;;3.50;1.00;;;;;;6207756;28;20740;-53
2022/12/06 12:23:07;;;;;;;9.70;9.00;;;3.60;1.00;;;;;;6211033;28;20240;-52
2022/12/06 12:26:13;;;;;;;9.77;9.03;;;3.60;1.00;;;;;;6217447;28;20745;-52
2022/12/06 12:29:19;;;;;;;9.67;8.87;;;3.40;1.00;;;;;;6208357;28;20327;-53
2022/12/06 12:32:22;;;;;;;9.60;8.90;;;3.20;1.00;;;;;;6210364;28;20245;-54
2022/12/06 12:35:27;;;;;;;9.73;8.93;;;3.70;1.00;;;;;;6207062;28;20240;-54
2022/12/06 12:38:38;;;;;;;10.20;9.40;;;3.70;1.00;;;;;;6209213;28;20250;-52
2022/12/06 12:41:43;;;;;;;9.27;8.73;;;3.50;1.00;;;;;;6213740;28;20227;-57
2022/12/06 12:44:47;;;;;;;9.67;9.03;;;3.40;1.00;;;;;;6200944;28;20613;-53
2022/12/06 12:47:58;;;;;;;8.93;8.33;;;3.60;1.00;;;;;;6208998;28;20250;-53
2022/12/06 12:51:04;;;;;;;9.27;8.67;;;3.60;1.00;;;;;;6209287;28;20483;-53
2022/12/06 12:54:23;;;;;;;8.83;8.23;;;3.50;1.00;;;;;;6207135;28;20286;-52
2022/12/06 12:57:26;;;;;;;8.43;7.93;;;3.30;1.00;;;;;;6220360;28;20702;-52
2022/12/06 13:00:34;;;;;;;7.97;7.57;;;3.40;1.00;;;;;;6212706;28;20235;-52
2022/12/06 13:03:38;;;;;;;9.27;8.53;;;3.30;1.00;;;;;;6206618;28;20232;-53
2022/12/06 13:07:00;;;;;;;7.90;7.50;;;3.40;1.00;;;;;;6210547;28;20243;-52
2022/12/06 13:10:07;;;;;;;8.07;7.67;;;3.50;1.00;;;;;;6219635;28;20274;-52
2022/12/06 13:13:16;;;;;;;7.53;7.20;;;3.40;1.00;;;;;;6204254;28;20239;-54
2022/12/06 13:16:23;;;;;;;8.20;7.67;;;3.20;1.00;;;;;;6215049;28;20227;-53
2022/12/06 13:19:34;;;;;;;8.37;7.87;;;3.30;1.00;;;;;;6211899;28;20298;-53
2022/12/06 13:22:43;;;;;;;7.70;7.30;;;3.40;1.00;;;;;;6203571;28;20231;-53
2022/12/06 13:25:53;;;;;;;8.27;7.77;;;3.00;1.00;;;;;;6220176;28;20242;-52
2022/12/06 13:28:59;;;;;;;8.10;7.70;;;3.10;1.00;;;;;;6207574;28;20668;-53
2022/12/06 13:32:08;;;;;;;8.53;8.00;;;3.20;1.00;;;;;;6210636;28;20239;-53
2022/12/06 13:35:23;;;;;;;8.53;7.93;;;3.00;1.00;;;;;;6212358;28;20243;-54
2022/12/06 13:38:30;;;;;;;8.70;8.20;;;3.10;1.00;;;;;;6227233;28;20235;-51
2022/12/06 13:45:41;;;;;;;9.70;9.00;;;3.20;1.00;;;;;;6228258;28;20238;-54
2022/12/06 13:48:52;;;;;;;9.37;8.87;;;3.30;1.00;;;;;;6233530;28;20235;-53
2022/12/06 13:51:54;;;;;;;8.77;8.20;;;3.30;1.00;;;;;;6238287;28;20241;-54
2022/12/06 13:54:57;;;;;;;9.67;9.07;;;3.40;1.00;;;;;;6233672;28;20247;-54
2022/12/06 13:58:34;;;;;;;9.30;8.70;;;3.40;1.00;;;;;;6237189;28;20242;-53
2022/12/06 14:01:41;;;;;;;9.97;9.37;;;3.10;1.00;;;;;;6238073;28;20385;-51
2022/12/06 14:04:44;;;;;;;9.10;8.60;;;3.20;1.00;;;;;;6236399;28;20523;-52
2022/12/06 14:07:47;;;;;;;9.83;9.33;;;3.20;1.00;;;;;;6237485;28;20393;-53
2022/12/06 14:10:50;;;;;;;9.87;9.23;;;3.60;1.00;;;;;;6239352;28;20239;-53
2022/12/06 14:14:02;;;;;;;10.10;9.47;;;3.10;1.00;;;;;;6232894;28;20230;-52
2022/12/06 14:17:13;;;;;;;10.67;9.87;;;3.20;1.00;;;;;;6237315;28;20474;-52
2022/12/06 14:20:36;;;;;;;9.63;9.03;;;3.50;1.00;;;;;;6233904;28;20301;-53
2022/12/06 14:23:46;;;;;;;10.90;9.93;;;3.50;1.00;;;;;;6235800;28;20231;-53
2022/12/06 14:26:49;;;;;;;10.47;9.77;;;3.40;1.00;;;;;;6233582;28;20250;-53
2022/12/06 14:30:02;;;;;;;10.03;9.33;;;3.50;1.00;;;;;;6237432;28;20354;-53
2022/12/06 14:33:18;;;;;;;10.23;9.33;;;3.30;1.00;;;;;;6234023;28;20496;-53
2022/12/06 14:36:25;;;;;;;9.80;9.10;;;3.10;1.00;;;;;;6236080;28;20617;-53
2022/12/06 14:39:30;;;;;;;10.00;9.30;;;3.10;1.00;;;;;;6234191;28;20733;-52
2022/12/06 14:45:54;;;;;;;10.40;9.67;;;3.10;1.00;;;;;;6233038;28;20231;-52
2022/12/06 14:52:25;;;;;;;10.40;9.40;;;3.30;1.00;;;;;;6231476;28;20235;-52
2022/12/06 14:55:30;;;;;;;11.17;10.27;;;3.00;1.00;;;;;;6236297;28;20266;-53
2022/12/06 14:58:35;;;;;;;10.33;9.33;;;3.00;1.00;;;;;;6231081;28;20749;-52
2022/12/06 15:01:47;;;;;;;9.77;8.90;;;3.00;1.00;;;;;;6235682;28;20231;-53
2022/12/06 15:04:52;;;;;;;9.90;9.10;;;3.00;1.00;;;;;;6224738;28;20238;-52
2022/12/06 15:07:55;;;;;;;10.47;9.73;;;2.90;1.00;;;;;;6226675;28;20246;-53
2022/12/06 15:11:00;;;;;;;9.63;8.87;;;3.10;1.00;;;;;;6242962;28;20261;-51
2022/12/06 15:14:14;;;;;;;9.90;9.00;;;3.00;1.00;;;;;;6235696;28;20410;-53
2022/12/06 15:17:21;;;;;;;10.37;9.57;;;3.40;1.00;;;;;;6227228;28;20267;-52
2022/12/06 15:20:25;;;;;;;10.43;9.63;;;3.00;1.00;;;;;;6234419;28;20235;-52
2022/12/06 15:23:37;;;;;;;10.10;9.30;;;3.10;1.00;;;;;;6238274;28;20241;-54
2022/12/06 15:26:40;;;;;;;10.40;9.40;;;3.30;1.00;;;;;;6230979;28;20235;-53
2022/12/06 15:29:43;;;;;;;9.83;8.97;;;3.30;1.00;;;;;;6240558;28;20223;-54
2022/12/06 15:32:45;;;;;;;9.87;8.93;;;3.00;1.00;;;;;;6233563;28;20506;-51
2022/12/06 15:35:51;;;;;;;10.60;9.63;;;2.90;1.00;;;;;;6235753;28;20765;-52
2022/12/06 15:38:54;;;;;;;10.00;9.20;;;3.00;1.00;;;;;;6230067;28;20271;-52
2022/12/06 15:41:57;;;;;;;10.83;10.03;;;3.30;1.00;;;;;;6230323;28;20239;-52
2022/12/06 15:45:00;;;;;;;10.13;9.33;;;3.00;1.00;;;;;;6235048;28;20249;-53
2022/12/06 15:48:03;;;;;;;9.73;9.03;;;3.20;1.00;;;;;;6231433;28;20385;-51
2022/12/06 15:51:13;;;;;;;10.13;9.23;;;3.00;1.00;;;;;;6234847;28;20237;-52
2022/12/06 15:54:25;;;;;;;9.93;9.13;;;3.10;1.00;;;;;;6235212;28;20601;-53
2022/12/06 15:57:28;;;;;;;10.00;9.27;;;3.30;1.00;;;;;;6232846;28;20231;-53
2022/12/06 16:00:31;;;;;;;9.17;8.43;;;3.30;1.00;;;;;;6235766;28;20637;-53
2022/12/06 16:03:34;;;;;;;9.23;8.57;;;2.90;1.00;;;;;;6235096;28;20593;-54
2022/12/06 16:06:38;;;;;;;10.80;9.87;;;3.30;1.00;;;;;;6234498;28;20242;-52
2022/12/06 16:09:41;;;;;;;9.93;9.17;;;2.90;1.00;;;;;;6235423;28;20237;-53
2022/12/06 16:16:05;;;;;;;9.87;9.00;;;3.20;1.00;;;;;;6234910;28;20604;-53
2022/12/06 16:19:08;;;;;;;9.03;8.43;;;3.10;1.00;;;;;;6234553;28;20242;-52
2022/12/06 16:22:13;;;;;;;10.87;9.97;;;3.20;1.00;;;;;;6231292;28;20258;-53
2022/12/06 16:25:15;;;;;;;9.57;8.77;;;3.10;1.00;;;;;;6205602;28;20640;-55
2022/12/06 16:28:18;;;;;;;9.43;8.70;;;3.00;1.00;;;;;;6201650;28;20246;-53
2022/12/06 16:31:21;;;;;;;10.77;9.77;;;3.10;1.00;;;;;;6209895;28;20629;-53
2022/12/06 16:34:26;;;;;;;11.33;10.47;;;3.30;1.00;;;;;;6209825;28;20246;-52
2022/12/06 16:37:30;;;;;;;11.50;10.60;;;3.00;1.00;;;;;;6210061;28;20257;-52
2022/12/06 16:40:33;;;;;;;10.77;9.97;;;3.10;1.00;;;;;;6210149;28;20231;-52
2022/12/06 16:43:36;;;;;;;11.53;10.60;;;3.30;1.00;;;;;;6211043;28;20243;-53
2022/12/06 16:46:40;;;;;;;10.63;9.73;;;3.50;1.00;;;;;;6202375;28;20238;-53
2022/12/06 16:49:43;;;;;;;10.63;9.63;;;3.00;1.00;;;;;;6211005;28;20239;-53
2022/12/06 16:52:50;;;;;;;10.93;9.93;;;3.10;1.00;;;;;;6209498;28;20235;-53
2022/12/06 16:55:53;;;;;;;10.10;9.17;;;3.10;1.00;;;;;;6213756;28;20749;-53
2022/12/06 16:58:56;;;;;;;9.67;8.87;;;3.30;1.00;;;;;;6209219;28;20243;-53